Terminal Aerodrome Forecast
Issued by NWS Boston, MA

Home | Current Version | Previous Version | Text Only | Print | Product List | Glossary On
Versions: 1 2 3 4 5 6 7 8 9 10 11 12 13 14 15 16 17 18 19 20 21 22 23 24 25 26 27 28 29 30 31 32 33 34 35 36 37 38 39
000
FTUS41 KBOX 041141
TAFBOS
TAF
KBOS 041141Z 0412/0518 23011KT P6SM SCT015 BKN120
     FM041600 24010KT P6SM OVC040
     FM050500 28007KT P6SM OVC150
     FM050600 28007KT 3SM BR OVC050
     FM050900 29008KT P6SM OVC050=

USA.gov is the U.S. government's official web portal to all federal, state and local government web resources and services.